Data for 11/03/2015

Time Sea-Level Adjusted Pressure Absolute Pressure Temperature Relative Humidity Dew Point   
(mb) (inHg) (mb) (inHg) (C) (F) (%) (C) (F)
00:05 1010 29.83 839 24.78 0.3 32.5 94 -0.6 30.9
00:10 1010 29.83 839 24.78 0.3 32.5 94 -0.6 30.9
00:15 1010 29.83 839 24.78 0.2 32.3 94 -0.7 30.8
00:20 1010 29.83 839 24.78 0.1 32.3 94 -0.7 30.7
00:25 1010 29.83 839 24.78 0.1 32.2 94 -0.7 30.7
00:30 1010 29.83 839 24.78 0.1 32.2 94 -0.7 30.7
00:35 1010 29.83 839 24.78 0.1 32.2 94 -0.7 30.7
00:40 1010 29.83 839 24.78 0.1 32.2 94 -0.7 30.7
00:45 1010 29.83 839 24.78 0.1 32.2 94 -0.7 30.8
00:50 1010 29.83 839 24.78 0.1 32.2 95 -0.7 30.8
00:55 1010 29.83 840 24.81 0.1 32.2 94 -0.7 30.7
01:00 1010 29.83 840 24.81 0.1 32.2 95 -0.7 30.8
01:05 1010 29.83 840 24.81 0.1 32.2 95 -0.7 30.8
01:10 1010 29.83 839 24.78 0.1 32.2 95 -0.7 30.8
01:15 1010 29.83 839 24.78 0.1 32.2 95 -0.7 30.8
01:20 1010 29.83 839 24.78 0.1 32.2 95 -0.7 30.8
01:25 1010 29.83 839 24.78 0.1 32.1 95 -0.7 30.7
01:30 1010 29.83 839 24.78 0.1 32.1 95 -0.7 30.8
01:35 1010 29.83 839 24.78 0.1 32.1 95 -0.7 30.8
01:40 1010 29.83 839 24.78 0.1 32.2 95 -0.7 30.8
01:45 1010 29.83 839 24.78 0.1 32.2 95 -0.7 30.8
01:50 1010 29.83 839 24.78 0.1 32.2 95 -0.7 30.8
01:55 1010 29.83 839 24.78 0.1 32.2 95 -0.7 30.8
02:00 1010 29.83 839 24.78 0.1 32.1 95 -0.7 30.8
02:05 1010 29.83 839 24.78 0.1 32.2 95 -0.7 30.8
02:10 1010 29.83 839 24.78 0.1 32.2 94 -0.7 30.7
02:15 1010 29.83 839 24.78 0.1 32.1 94 -0.7 30.7
02:20 1010 29.83 839 24.78 0.1 32.2 94 -0.7 30.7
02:25 1010 29.83 839 24.78 0.1 32.3 94 -0.7 30.7
02:30 1010 29.83 839 24.78 0.2 32.3 94 -0.7 30.7
02:35 1010 29.83 839 24.78 0.2 32.3 93 -0.8 30.6
02:40 1010 29.83 839 24.78 0.2 32.4 93 -0.8 30.6
02:45 1010 29.83 839 24.78 0.2 32.4 93 -0.8 30.5
02:50 1010 29.83 839 24.78 0.3 32.5 92 -0.9 30.4
02:55 1010 29.83 839 24.78 0.3 32.6 91 -0.9 30.4
03:00 1010 29.83 839 24.78 0.3 32.6 92 -0.9 30.4
03:05 1010 29.83 839 24.78 0.3 32.5 91 -0.9 30.3
03:10 1010 29.83 839 24.78 0.3 32.6 91 -1 30.2
03:15 1010 29.83 839 24.78 0.4 32.7 90 -1 30.2
03:20 1010 29.83 839 24.78 0.4 32.8 90 -1.1 30.1
03:25 1010 29.83 839 24.78 0.5 32.9 90 -1 30.1
03:30 1010 29.83 839 24.78 0.5 32.9 89 -1 30.1
03:35 1010 29.83 839 24.78 0.5 32.9 90 -0.9 30.3
03:40 1010 29.83 839 24.78 0.5 32.8 90 -1 30.3
03:45 1010 29.83 839 24.78 0.5 32.8 90 -1 30.3
03:50 1010 29.83 839 24.78 0.5 32.8 90 -0.9 30.3
03:55 1010 29.83 839 24.78 0.5 32.9 90 -0.9 30.4
04:00 1010 29.83 839 24.78 0.5 32.9 90 -1 30.2
04:05 1010 29.83 839 24.78 0.6 33 89 -1 30.2
04:10 1010 29.83 839 24.78 0.6 33 90 -1 30.2
04:15 1010 29.83 839 24.78 0.5 32.9 90 -0.9 30.3
04:20 1010 29.83 839 24.78 0.5 32.8 91 -0.9 30.4
04:25 1010 29.83 839 24.78 0.4 32.7 91 -0.9 30.3
04:30 1010 29.83 839 24.78 0.4 32.7 91 -1 30.2
04:35 1010 29.83 839 24.78 0.5 32.9 89 -1.1 30.1
04:40 1010 29.83 839 24.78 0.5 32.9 90 -1 30.2
04:45 1010 29.83 839 24.78 0.4 32.8 90 -1 30.3
04:50 1010 29.83 839 24.78 0.3 32.6 91 -0.9 30.3
04:55 1010 29.83 839 24.78 0.3 32.5 92 -0.9 30.4
05:00 1009 29.8 839 24.78 0.3 32.5 92 -0.9 30.4
05:05 1010 29.83 839 24.78 0.2 32.4 92 -0.9 30.5
05:10 1010 29.83 839 24.78 0.3 32.5 92 -0.9 30.5
05:15 1010 29.83 839 24.78 0.3 32.5 92 -0.9 30.4
05:20 1010 29.83 839 24.78 0.3 32.5 92 -0.9 30.4
05:25 1009 29.8 839 24.78 0.3 32.5 92 -0.8 30.5
05:30 1010 29.83 839 24.78 0.2 32.3 93 -0.9 30.4
05:35 1010 29.83 839 24.78 0.1 32.2 93 -0.9 30.4
05:40 1009 29.8 839 24.78 0.1 32.1 93 -0.9 30.4
05:45 1009 29.8 839 24.78 -0 32 94 -0.9 30.4
05:50 1009 29.8 839 24.78 -0 31.9 94 -0.9 30.4
05:55 1009 29.8 838 24.75 -0.1 31.9 94 -0.9 30.4
06:00 1009 29.8 839 24.78 -0 31.9 94 -0.8 30.5
06:05 1010 29.83 839 24.78 -0.1 31.9 94 -0.8 30.5
06:10 1009 29.8 839 24.78 -0 31.9 95 -0.8 30.5
06:15 1009 29.8 839 24.78 -0 32 94 -0.8 30.5
06:20 1009 29.8 839 24.78 -0 31.9 94 -0.8 30.5
06:25 1009 29.8 838 24.75 -0.1 31.9 94 -0.9 30.5
06:30 1009 29.8 838 24.75 -0 31.9 94 -0.9 30.5
06:35 1009 29.8 838 24.75 -0 31.9 94 -0.9 30.5
06:40 1009 29.8 838 24.75 -0 31.9 94 -0.9 30.5
06:45 1009 29.8 838 24.75 -0.1 31.8 95 -0.9 30.4
06:50 1009 29.8 838 24.75 -0.1 31.8 95 -0.8 30.5
06:55 1009 29.8 838 24.75 -0.1 31.8 95 -0.9 30.4
07:00 1009 29.8 838 24.75 -0.1 31.8 95 -0.8 30.5
07:05 1009 29.8 838 24.75 -0.1 31.9 95 -0.8 30.5
07:10 1009 29.8 838 24.75 -0.1 31.8 95 -0.9 30.5
07:15 1009 29.8 838 24.75 -0.1 31.8 95 -0.9 30.5
07:20 1009 29.8 838 24.75 -0.1 31.8 95 -0.9 30.5
07:25 1009 29.8 838 24.75 -0.1 31.8 95 -0.8 30.5
07:30 1009 29.8 838 24.75 -0.1 31.9 95 -0.8 30.6
07:35 1009 29.8 838 24.75 -0.1 31.8 95 -0.8 30.5
07:40 1009 29.8 838 24.75 -0.1 31.8 95 -0.8 30.6
07:45 1009 29.8 838 24.75 -0.2 31.7 95 -0.8 30.5
07:50 1009 29.8 838 24.75 -0.1 31.8 95 -0.8 30.5
07:55 1009 29.8 838 24.75 -0.1 31.8 95 -0.8 30.5
08:00 1009 29.8 838 24.75 -0.1 31.7 95 -0.8 30.5
08:05 1008 29.77 838 24.75 -0.1 31.7 95 -0.8 30.5
08:10 1008 29.77 838 24.75 -0.2 31.7 95 -0.9 30.5
08:15 1009 29.8 838 24.75 -0.2 31.7 95 -0.9 30.4
08:20 1008 29.77 838 24.75 -0.2 31.7 95 -0.9 30.4
08:25 1009 29.8 838 24.75 -0.2 31.7 95 -0.8 30.5
08:30 1008 29.77 838 24.75 -0.1 31.8 95 -0.8 30.5
08:35 1008 29.77 838 24.75 -0.2 31.7 95 -0.8 30.5
08:40 1008 29.77 838 24.75 -0.1 31.7 95 -0.8 30.5
08:45 1008 29.77 838 24.75 -0.2 31.7 95 -0.8 30.5
08:50 1008 29.77 838 24.75 -0.2 31.7 95 -0.8 30.5
08:55 1009 29.8 838 24.75 -0.2 31.7 95 -0.8 30.5
09:00 1008 29.77 838 24.75 -0.1 31.8 95 -0.8 30.5
09:05 1008 29.77 838 24.75 -0.1 31.9 95 -0.8 30.6
09:10 1008 29.77 838 24.75 0 32 95 -0.7 30.7
09:15 1008 29.77 837 24.72 -0.1 31.8 95 -0.8 30.5
09:20 1008 29.77 838 24.75 -0.1 31.8 94 -0.9 30.4
09:25 1009 29.8 838 24.75 -0.2 31.7 94 -1 30.3
09:30 1008 29.77 838 24.75 -0.2 31.7 94 -1 30.3
09:35 1008 29.77 838 24.75 -0.2 31.7 94 -1 30.2
09:40 1008 29.77 838 24.75 -0.2 31.7 94 -1 30.2
09:45 1008 29.77 837 24.72 -0.2 31.7 95 -0.9 30.3
09:50 1008 29.77 837 24.72 -0 32 95 -0.8 30.6
09:55 1008 29.77 838 24.75 0.1 32.2 94 -0.7 30.8
10:00 1008 29.77 837 24.72 0.1 32.2 94 -0.7 30.7
10:05 1008 29.77 838 24.75 0.1 32.2 94 -0.7 30.7
10:10 1008 29.77 838 24.75 0.1 32.1 94 -0.7 30.7
10:15 1009 29.8 838 24.75 0.1 32.1 94 -0.7 30.7
10:20 1009 29.8 838 24.75 0.1 32.1 94 -0.7 30.7
10:25 1008 29.77 838 24.75 0.1 32.2 94 -0.7 30.7
10:30 1008 29.77 838 24.75 0.1 32.2 94 -0.7 30.7
10:35 1008 29.77 838 24.75 0.1 32.2 94 -0.7 30.7
10:40 1008 29.77 838 24.75 0.1 32.1 94 -0.8 30.6
10:45 1008 29.77 838 24.75 0 32 94 -0.8 30.6
10:50 1008 29.77 837 24.72 0.1 32.2 94 -0.7 30.7
10:55 1008 29.77 837 24.72 0.3 32.5 94 -0.5 31
11:00 1008 29.77 837 24.72 0.5 33 94 -0.3 31.5
11:05 1008 29.77 837 24.72 0.7 33.2 94 -0.3 31.5
11:10 1008 29.77 837 24.72 0.7 33.2 93 -0.3 31.5
11:15 1008 29.77 837 24.72 0.9 33.6 93 -0.1 31.8
11:20 1008 29.77 837 24.72 0.7 33.3 92 -0.5 31.2
11:25 1008 29.77 837 24.72 0.4 32.8 93 -0.6 30.9
11:30 1008 29.77 837 24.72 0.4 32.6 93 -0.7 30.7
11:35 1008 29.77 837 24.72 0.3 32.6 93 -0.7 30.7
11:40 1008 29.77 837 24.72 0.4 32.7 92 -0.7 30.7
11:45 1008 29.77 837 24.72 0.3 32.6 90 -1.1 30.1
11:50 1008 29.77 837 24.72 0.5 32.8 88 -1.4 29.5
11:55 1008 29.77 837 24.72 0.6 33.1 86 -1.5 29.3
12:00 1007 29.74 837 24.72 0.6 33.1 84 -1.8 28.8
12:05 1007 29.74 837 24.72 0.6 33 84 -1.8 28.8
12:10 1007 29.74 837 24.72 0.6 33.1 84 -1.9 28.6
12:15 1008 29.77 837 24.72 0.6 33.1 83 -2 28.5
12:20 1008 29.77 837 24.72 0.6 33 84 -1.8 28.8
12:25 1008 29.77 837 24.72 0.6 33 85 -1.8 28.8
12:30 1008 29.77 837 24.72 0.4 32.8 84 -2 28.4
12:35 1008 29.77 837 24.72 0.4 32.7 86 -1.7 28.9
12:40 1008 29.77 837 24.72 0.3 32.5 87 -1.7 29
12:45 1008 29.77 837 24.72 0.1 32.1 90 -1.4 29.4
12:50 1007 29.74 837 24.72 -0.1 31.8 91 -1.4 29.5
12:55 1007 29.74 837 24.72 -0.2 31.6 92 -1.4 29.5
13:00 1007 29.74 837 24.72 -0.3 31.5 93 -1.3 29.6
13:05 1007 29.74 837 24.72 -0.3 31.5 92 -1.4 29.5
13:10 1007 29.74 836 24.69 -0.2 31.6 92 -1.3 29.6
13:15 1007 29.74 836 24.69 -0.2 31.7 92 -1.3 29.7
13:20 1007 29.74 836 24.69 -0 31.9 92 -1.2 29.9
13:25 1007 29.74 836 24.69 0.1 32.1 92 -1.1 30.1
13:30 1007 29.74 836 24.69 0 32.1 91 -1.2 29.9
13:35 1007 29.74 836 24.69 -0 32 91 -1.3 29.7
13:40 1007 29.74 836 24.69 -0.1 31.8 91 -1.4 29.5
13:45 1007 29.74 836 24.69 -0.3 31.5 92 -1.4 29.5
13:50 1007 29.74 836 24.69 -0.3 31.4 93 -1.4 29.6
13:55 1007 29.74 836 24.69 -0.3 31.4 93 -1.3 29.7
14:00 1007 29.74 836 24.69 -0.3 31.4 93 -1.3 29.7
14:05 1007 29.74 836 24.69 -0.3 31.5 93 -1.2 29.8
14:10 1007 29.74 837 24.72 -0.3 31.4 93 -1.3 29.7
14:15 1007 29.74 837 24.72 -0.4 31.3 94 -1.3 29.7
14:20 1007 29.74 837 24.72 -0.4 31.3 94 -1.3 29.6
14:25 1008 29.77 837 24.72 -0.5 31.1 94 -1.4 29.5
14:30 1008 29.77 837 24.72 -0.5 31.1 94 -1.4 29.5
14:35 1007 29.74 837 24.72 -0.5 31.1 94 -1.4 29.5
14:40 1007 29.74 837 24.72 -0.5 31.1 94 -1.4 29.5
14:45 1007 29.74 837 24.72 -0.5 31.1 94 -1.4 29.5
14:50 1007 29.74 836 24.69 -0.6 30.9 94 -1.5 29.3
14:55 1007 29.74 836 24.69 -0.7 30.7 94 -1.6 29.2
15:00 1007 29.74 836 24.69 -0.7 30.8 94 -1.6 29.2
15:05 1007 29.74 836 24.69 -0.6 30.9 94 -1.5 29.3
15:10 1007 29.74 836 24.69 -0.6 31 93 -1.5 29.2
15:15 1007 29.74 836 24.69 -0.5 31 92 -1.7 28.9
15:20 1007 29.74 836 24.69 -0.4 31.2 91 -1.8 28.8
15:25 1007 29.74 836 24.69 -0.3 31.4 90 -1.8 28.8
15:30 1007 29.74 836 24.69 -0.3 31.5 88 -2 28.3
15:35 1006 29.71 836 24.69 -0.2 31.7 88 -1.9 28.6
15:40 1006 29.71 835 24.66 -0.1 31.7 87 -2 28.4
15:45 1006 29.71 835 24.66 -0.1 31.7 87 -2 28.3
15:50 1006 29.71 835 24.66 -0.1 31.9 86 -2.1 28.2
15:55 1006 29.71 835 24.66 0 32.1 86 -2.1 28.2
16:00 1006 29.71 835 24.66 0.3 32.5 83 -2.2 28
16:05 1006 29.71 835 24.66 0.5 32.9 82 -2.1 28.2
16:10 1006 29.71 835 24.66 0.5 32.9 83 -2.1 28.2
16:15 1006 29.71 835 24.66 0.5 32.9 83 -2 28.4
16:20 1006 29.71 835 24.66 0.6 33.1 82 -2.2 28.1
16:25 1006 29.71 836 24.69 0.7 33.3 81 -2.2 28
16:30 1007 29.74 836 24.69 0.6 33.2 81 -2.2 28.1
16:35 1007 29.74 836 24.69 0.6 33.1 82 -2.1 28.2
16:40 1007 29.74 836 24.69 0.7 33.2 80 -2.4 27.7
16:45 1007 29.74 836 24.69 0.6 33.1 82 -2.2 28.1
16:50 1007 29.74 836 24.69 0.5 32.9 83 -2.2 28.1
16:55 1007 29.74 836 24.69 0.4 32.8 85 -1.8 28.7
17:00 1007 29.74 836 24.69 0.4 32.7 91 -1 30.2
17:05 1007 29.74 836 24.69 0.2 32.3 91 -1.1 30.1
17:10 1007 29.74 836 24.69 -0 31.9 92 -1.1 30
17:15 1007 29.74 837 24.72 -0.1 31.8 93 -1.1 29.9
17:20 1007 29.74 837 24.72 -0.2 31.7 90 -1.6 29.1
17:25 1008 29.77 837 24.72 -0 32 87 -1.9 28.6
17:30 1008 29.77 837 24.72 0 32.1 88 -1.8 28.8
17:35 1008 29.77 837 24.72 0.1 32.1 85 -2.1 28.2
17:40 1008 29.77 837 24.72 0.2 32.3 83 -2.4 27.7
17:45 1008 29.77 837 24.72 0.2 32.3 82 -2.5 27.5
17:50 1008 29.77 837 24.72 0.2 32.3 83 -2.4 27.7
17:55 1008 29.77 837 24.72 0.2 32.4 83 -2.4 27.8
18:00 1008 29.77 837 24.72 0.1 32.3 84 -2.3 27.8
18:05 1008 29.77 837 24.72 0.2 32.3 83 -2.4 27.7
18:10 1008 29.77 837 24.72 0.1 32.2 85 -2.1 28.1
18:15 1008 29.77 837 24.72 -0.1 31.8 88 -1.8 28.8
18:20 1008 29.77 837 24.72 -0.4 31.3 91 -1.7 29
18:25 1008 29.77 837 24.72 -0.5 31 93 -1.6 29.1
18:30 1008 29.77 837 24.72 -0.6 31 93 -1.6 29.1
18:35 1008 29.77 837 24.72 -0.5 31.1 91 -1.8 28.8
18:40 1008 29.77 837 24.72 -0.4 31.3 89 -2 28.4
18:45 1008 29.77 837 24.72 -0.2 31.6 87 -2.2 28.1
18:50 1008 29.77 837 24.72 -0.1 31.8 85 -2.3 27.9
18:55 1008 29.77 837 24.72 0 32 84 -2.4 27.7
19:00 1008 29.77 838 24.75 0.1 32.1 82 -2.7 27.1
19:05 1008 29.77 837 24.72 0.2 32.4 81 -2.6 27.3
19:10 1008 29.77 838 24.75 0.3 32.5 80 -2.8 27
19:15 1008 29.77 838 24.75 0.3 32.6 80 -2.7 27.1
19:20 1008 29.77 838 24.75 0.3 32.6 80 -2.7 27.2
19:25 1009 29.8 838 24.75 0.3 32.6 81 -2.6 27.3
19:30 1009 29.8 838 24.75 0.2 32.4 81 -2.7 27.1
19:35 1009 29.8 838 24.75 0.2 32.4 81 -2.7 27.2
19:40 1009 29.8 838 24.75 0.2 32.3 81 -2.7 27.2
19:45 1009 29.8 838 24.75 0.1 32.2 81 -2.7 27.1
19:50 1009 29.8 838 24.75 0.2 32.3 81 -2.8 27
19:55 1009 29.8 838 24.75 0.1 32.2 81 -2.7 27.2
20:00 1009 29.8 838 24.75 0 32.1 82 -2.7 27.2
20:05 1009 29.8 838 24.75 0.1 32.2 81 -2.8 26.9
20:10 1009 29.8 838 24.75 0.1 32.1 82 -2.7 27.1
20:15 1009 29.8 838 24.75 0.1 32.1 82 -2.7 27.2
20:20 1009 29.8 838 24.75 0 32 82 -2.7 27.1
20:25 1009 29.8 838 24.75 -0 31.9 82 -2.7 27.1
20:30 1009 29.8 838 24.75 0 32 82 -2.7 27.2
20:35 1009 29.8 839 24.78 0 32 83 -2.5 27.5
20:40 1009 29.8 839 24.78 0 32 89 -1.6 29.1
20:45 1009 29.8 839 24.78 -0.1 31.8 91 -1.5 29.4
20:50 1009 29.8 839 24.78 -0.1 31.8 92 -1.3 29.6
20:55 1010 29.83 839 24.78 -0.2 31.7 93 -1.2 29.8
21:00 1010 29.83 839 24.78 -0.2 31.6 93 -1.2 29.8
21:05 1010 29.83 839 24.78 -0.2 31.7 93 -1.2 29.8
21:10 1010 29.83 839 24.78 -0.2 31.7 93 -1.2 29.9
21:15 1010 29.83 839 24.78 -0.1 31.8 93 -1.1 30
21:20 1010 29.83 839 24.78 -0.1 31.8 93 -1.1 30
21:25 1010 29.83 839 24.78 -0.2 31.7 93 -1.2 29.8
21:30 1010 29.83 839 24.78 -0.3 31.4 92 -1.4 29.4
21:35 1010 29.83 839 24.78 -0.4 31.3 92 -1.5 29.4
21:40 1010 29.83 839 24.78 -0.3 31.5 93 -1.3 29.7
21:45 1010 29.83 839 24.78 -0.3 31.4 93 -1.3 29.6
21:50 1010 29.83 840 24.81 -0.4 31.3 93 -1.3 29.6
21:55 1010 29.83 840 24.81 -0.5 31.1 94 -1.4 29.4
22:00 1010 29.83 840 24.81 -0.6 31 94 -1.5 29.3
22:05 1011 29.85 840 24.81 -0.5 31 94 -1.4 29.6
22:10 1011 29.85 840 24.81 -0.5 31.2 94 -1.3 29.7
22:15 1011 29.85 840 24.81 -0.4 31.3 94 -1.2 29.8
22:20 1011 29.85 840 24.81 -0.4 31.2 94 -1.2 29.8
22:25 1011 29.85 840 24.81 -0.5 31 94 -1.4 29.6
22:30 1011 29.85 840 24.81 -0.6 30.9 94 -1.4 29.4
22:35 1011 29.85 840 24.81 -0.7 30.7 94 -1.5 29.3
22:40 1011 29.85 840 24.81 -0.8 30.6 94 -1.6 29.2
22:45 1011 29.85 840 24.81 -0.8 30.6 94 -1.6 29.2
22:50 1011 29.85 840 24.81 -0.7 30.7 94 -1.6 29.1
22:55 1011 29.85 840 24.81 -0.7 30.7 94 -1.6 29.1
23:00 1011 29.85 840 24.81 -0.7 30.7 94 -1.6 29.1
23:05 1011 29.85 841 24.83 -0.7 30.7 94 -1.6 29.1
23:10 1011 29.85 841 24.83 -0.7 30.8 93 -1.6 29.1
23:15 1011 29.85 841 24.83 -0.7 30.7 93 -1.7 29
23:20 1011 29.85 841 24.83 -0.7 30.7 93 -1.7 29
23:25 1011 29.85 841 24.83 -0.8 30.6 94 -1.7 28.9
23:30 1012 29.88 841 24.83 -0.8 30.6 94 -1.7 29
23:35 1012 29.88 841 24.83 -0.9 30.5 94 -1.7 28.9
23:40 1012 29.88 841 24.83 -0.8 30.5 94 -1.7 28.9
23:45 1012 29.88 841 24.83 -0.9 30.5 94 -1.7 28.9
23:50 1012 29.88 841 24.83 -0.9 30.5 94 -1.7 29
23:55 1012 29.88 841 24.83 -0.9 30.5 94 -1.7 29
24:00 1012 29.88 841 24.83 -0.9 30.4 94 -1.7 29